createdAt,value
2018-08-24T00:00:57.014Z,94.88
2018-08-24T00:03:36.089Z,95.50
2018-08-24T00:06:05.695Z,93.42
2018-08-24T00:08:34.859Z,93.50
2018-08-24T00:11:03.987Z,93.09
2018-08-24T00:13:33.050Z,95.31
2018-08-24T00:16:02.120Z,100.00
2018-08-24T00:18:31.201Z,100.00
2018-08-24T00:21:00.334Z,100.00
2018-08-24T00:23:29.435Z,100.00
2018-08-24T00:25:58.553Z,100.00
2018-08-24T00:28:27.898Z,100.00
2018-08-24T00:30:57.254Z,100.00
2018-08-24T00:33:26.479Z,100.00
2018-08-24T00:35:55.583Z,100.00
2018-08-24T00:38:24.713Z,100.00
2018-08-24T00:40:57.046Z,100.00
2018-08-24T00:43:27.191Z,100.00
2018-08-24T00:45:56.335Z,100.00
2018-08-24T00:48:25.493Z,100.00
2018-08-24T00:50:55.173Z,100.00
2018-08-24T00:53:24.954Z,100.00
2018-08-24T00:55:54.058Z,100.00
2018-08-24T00:58:23.127Z,100.00
2018-08-24T01:00:56.401Z,100.00
2018-08-24T01:03:26.959Z,100.00
2018-08-24T01:05:56.084Z,100.00
2018-08-24T01:08:25.216Z,100.00
2018-08-24T01:10:54.306Z,100.00
2018-08-24T01:13:23.423Z,100.00
2018-08-24T01:15:56.935Z,100.00
2018-08-24T01:18:31.221Z,100.00
2018-08-24T01:21:01.359Z,100.00
2018-08-24T01:23:31.711Z,100.00
2018-08-24T01:26:02.776Z,100.00
2018-08-24T01:28:32.326Z,100.00
2018-08-24T01:31:04.972Z,100.00
2018-08-24T01:33:34.402Z,100.00
2018-08-24T01:36:03.563Z,100.00
2018-08-24T01:38:32.735Z,100.00
2018-08-24T01:41:01.928Z,100.00
2018-08-24T01:43:31.037Z,100.00
2018-08-24T01:46:05.799Z,100.00
2018-08-24T01:48:34.935Z,100.00
2018-08-24T01:51:04.029Z,99.69
2018-08-24T01:53:33.229Z,100.00
2018-08-24T01:56:02.347Z,100.00
2018-08-24T01:58:31.436Z,98.41
2018-08-24T02:01:00.567Z,97.40
2018-08-24T02:03:29.670Z,96.07
2018-08-24T02:06:04.150Z,96.73
2018-08-24T02:08:33.327Z,97.44
2018-08-24T02:11:20.112Z,97.04
2018-08-24T02:13:56.986Z,97.33
2018-08-24T02:16:29.215Z,96.35
2018-08-24T02:19:03.538Z,95.71
2018-08-24T02:22:41.581Z,95.18
2018-08-24T02:25:10.634Z,95.51
2018-08-24T02:27:39.752Z,96.14
2018-08-24T02:30:08.910Z,95.45
2018-08-24T02:32:38.012Z,95.53
2018-08-24T02:35:08.615Z,97.03
2018-08-24T02:37:37.792Z,96.44
2018-08-24T02:40:07.029Z,96.55
2018-08-24T02:42:36.156Z,97.72
2018-08-24T02:45:05.494Z,96.82
2018-08-24T02:47:34.558Z,97.53
2018-08-24T02:50:03.688Z,96.93
2018-08-24T02:52:32.791Z,97.07
2018-08-24T02:55:02.187Z,99.28
2018-08-24T02:57:31.324Z,97.84
2018-08-24T03:00:00.550Z,98.07
2018-08-24T03:02:30.042Z,98.17
2018-08-24T03:04:59.190Z,98.64
2018-08-24T03:07:29.307Z,99.48
2018-08-24T03:09:58.382Z,98.94
2018-08-24T03:12:28.880Z,98.77
2018-08-24T03:14:57.971Z,99.02
2018-08-24T03:17:32.449Z,99.45
2018-08-24T03:20:01.583Z,99.58
2018-08-24T03:22:30.693Z,99.54
2018-08-24T03:24:59.770Z,98.83
2018-08-24T03:27:28.812Z,97.97
2018-08-24T03:29:58.032Z,98.09
2018-08-24T03:32:27.204Z,97.61
2018-08-24T03:34:56.307Z,97.40
2018-08-24T03:37:25.397Z,96.90
2018-08-24T03:39:54.569Z,97.47
2018-08-24T03:42:23.645Z,97.07
2018-08-24T03:44:52.758Z,96.99
2018-08-24T03:47:22.059Z,98.23
2018-08-24T03:49:51.156Z,97.13
2018-08-24T03:52:20.246Z,97.50
2018-08-24T03:54:49.313Z,97.04
2018-08-24T03:57:18.408Z,96.99
2018-08-24T03:59:47.515Z,97.60
2018-08-24T04:02:16.666Z,97.42
2018-08-24T04:04:45.752Z,96.34
2018-08-24T04:07:15.604Z,96.41
2018-08-24T04:09:44.802Z,96.59
2018-08-24T04:12:13.932Z,97.29
2018-08-24T04:14:43.036Z,95.57
2018-08-24T04:17:17.390Z,94.69
2018-08-24T04:19:46.490Z,95.02
2018-08-24T04:22:15.573Z,95.17
2018-08-24T04:24:44.659Z,97.13
2018-08-24T04:27:13.796Z,95.71
2018-08-24T04:29:42.881Z,96.07
2018-08-24T04:32:12.063Z,95.66
2018-08-24T04:34:41.246Z,94.88
2018-08-24T04:37:10.624Z,95.49
2018-08-24T04:39:39.763Z,95.54
2018-08-24T04:42:08.849Z,95.06
2018-08-24T04:44:37.926Z,94.22
2018-08-24T04:47:07.092Z,94.47
2018-08-24T04:49:36.164Z,95.89
2018-08-24T04:52:05.351Z,95.40
2018-08-24T04:54:34.471Z,95.33
2018-08-24T04:57:03.553Z,96.08
2018-08-24T04:59:32.750Z,96.72
2018-08-24T05:02:01.905Z,94.98
2018-08-24T05:04:30.959Z,95.56
2018-08-24T05:07:00.097Z,95.55
2018-08-24T05:09:29.210Z,95.02
2018-08-24T05:11:58.285Z,95.41
2018-08-24T05:14:27.399Z,96.12
2018-08-24T05:16:56.520Z,95.12
2018-08-24T05:19:26.944Z,94.59
2018-08-24T05:21:56.128Z,95.64
2018-08-24T05:24:25.366Z,95.46
2018-08-24T05:26:54.457Z,95.51
2018-08-24T05:29:23.665Z,94.82
2018-08-24T05:31:52.797Z,95.00
2018-08-24T05:34:22.584Z,95.30
2018-08-24T05:36:51.787Z,94.62
2018-08-24T05:39:21.838Z,95.02
2018-08-24T05:41:50.944Z,94.43
2018-08-24T05:44:19.998Z,94.60
2018-08-24T05:46:49.107Z,93.78
2018-08-24T05:49:18.197Z,93.55
2018-08-24T05:51:47.303Z,93.56
2018-08-24T05:54:17.290Z,93.41
2018-08-24T05:56:47.411Z,92.42
2018-08-24T05:59:16.536Z,93.64
2018-08-24T06:01:45.628Z,92.41
2018-08-24T06:04:14.750Z,92.74
2018-08-24T06:06:44.018Z,92.88
2018-08-24T06:09:15.010Z,92.14
2018-08-24T06:11:44.886Z,92.65
2018-08-24T06:14:14.557Z,92.18
2018-08-24T06:16:49.147Z,92.13
2018-08-24T06:19:18.804Z,92.37
2018-08-24T06:21:47.943Z,92.67
2018-08-24T06:24:17.096Z,92.73
2018-08-24T06:26:46.133Z,92.53
2018-08-24T06:29:16.142Z,91.78
2018-08-24T06:31:45.423Z,91.81
2018-08-24T06:34:20.800Z,92.39
2018-08-24T06:36:50.229Z,90.77
2018-08-24T06:39:19.831Z,90.94
2018-08-24T06:41:48.953Z,91.12
2018-08-24T06:44:18.102Z,90.62
2018-08-24T06:46:47.330Z,89.94
2018-08-24T06:49:16.483Z,89.42
2018-08-24T06:51:45.654Z,90.69
2018-08-24T06:54:14.769Z,89.30
2018-08-24T06:56:43.941Z,88.67
2018-08-24T06:59:13.036Z,88.97
2018-08-24T07:01:42.127Z,88.97
2018-08-24T07:04:11.266Z,88.98
2018-08-24T07:06:40.368Z,89.22
2018-08-24T07:09:10.020Z,89.06
2018-08-24T07:11:39.119Z,87.99
2018-08-24T07:14:08.220Z,87.83
2018-08-24T07:16:37.344Z,88.09
2018-08-24T07:19:06.469Z,88.05
2018-08-24T07:21:35.590Z,87.64
2018-08-24T07:24:04.688Z,88.21
2018-08-24T07:26:33.844Z,87.17
2018-08-24T07:29:06.276Z,87.20
2018-08-24T07:31:35.748Z,87.99
2018-08-24T07:34:04.902Z,87.16
2018-08-24T07:36:34.060Z,86.79
2018-08-24T07:39:03.247Z,87.93
2018-08-24T07:41:32.479Z,87.03
2018-08-24T07:44:01.494Z,86.61
2018-08-24T07:46:30.677Z,86.86
2018-08-24T07:48:59.760Z,86.87
2018-08-24T07:51:28.899Z,86.77
2018-08-24T07:53:58.257Z,87.16
2018-08-24T07:56:29.095Z,87.81
2018-08-24T07:58:59.271Z,87.82
2018-08-24T08:01:28.921Z,87.71
2018-08-24T08:03:59.411Z,86.82
2018-08-24T08:06:28.763Z,87.23
2018-08-24T08:08:58.206Z,86.41
2018-08-24T08:11:30.768Z,85.53
2018-08-24T08:14:00.458Z,85.64
2018-08-24T08:16:29.534Z,85.37
2018-08-24T08:18:58.667Z,84.38
2018-08-24T08:21:27.836Z,83.22
2018-08-24T08:23:56.955Z,82.27
2018-08-24T08:26:26.112Z,81.90
2018-08-24T08:28:55.311Z,80.40
2018-08-24T08:31:24.425Z,79.50
2018-08-24T08:33:53.490Z,78.77
2018-08-24T08:36:22.599Z,78.66
2018-08-24T08:38:51.741Z,78.99
2018-08-24T08:41:20.841Z,78.13
2018-08-24T08:43:49.961Z,77.49
2018-08-24T08:46:19.035Z,77.31
2018-08-24T08:48:48.151Z,76.34
2018-08-24T08:51:17.241Z,75.74
2018-08-24T08:53:46.380Z,75.16
2018-08-24T08:56:16.559Z,74.05
2018-08-24T08:58:45.711Z,74.52
2018-08-24T09:01:14.817Z,75.70
2018-08-24T09:03:44.090Z,76.00
2018-08-24T09:06:13.258Z,77.28
2018-08-24T09:08:42.362Z,77.66
2018-08-24T09:11:11.515Z,76.51
2018-08-24T09:13:40.657Z,76.57
2018-08-24T09:16:09.930Z,74.62
2018-08-24T09:18:44.328Z,71.68
2018-08-24T09:21:18.679Z,71.66
2018-08-24T09:23:53.136Z,70.39
2018-08-24T09:26:27.314Z,71.48
2018-08-24T09:28:57.702Z,72.97
2018-08-24T09:31:28.903Z,73.21
2018-08-24T09:33:58.017Z,72.86
2018-08-24T09:36:27.136Z,72.44
2018-08-24T09:38:56.290Z,71.08
2018-08-24T09:41:25.401Z,69.44
2018-08-24T09:43:55.581Z,69.46
2018-08-24T09:46:30.849Z,68.77
2018-08-24T09:49:05.244Z,64.25
2018-08-24T09:51:34.333Z,61.00
2018-08-24T09:54:04.992Z,60.97
2018-08-24T09:56:34.971Z,60.02
2018-08-24T09:59:04.147Z,58.75
2018-08-24T10:01:38.576Z,56.28
2018-08-24T10:04:13.068Z,56.30
2018-08-24T10:06:47.360Z,56.21
2018-08-24T10:09:16.717Z,55.43
2018-08-24T10:11:45.813Z,55.09
2018-08-24T10:14:14.939Z,54.69
2018-08-24T10:16:44.072Z,54.06
2018-08-24T10:19:14.347Z,53.39
2018-08-24T10:21:43.453Z,52.99
2018-08-24T10:24:12.550Z,53.19
2018-08-24T10:26:41.654Z,53.22
2018-08-24T10:29:10.742Z,51.36
2018-08-24T10:31:39.822Z,51.05
2018-08-24T10:34:08.851Z,50.46
2018-08-24T10:36:37.928Z,50.04
2018-08-24T10:39:08.785Z,50.00
2018-08-24T10:41:37.924Z,47.95
2018-08-24T10:44:07.240Z,44.38
2018-08-24T10:46:36.336Z,44.82
2018-08-24T10:49:05.491Z,45.22
2018-08-24T10:51:34.620Z,47.74
2018-08-24T10:54:03.729Z,47.66
2018-08-24T10:56:32.858Z,47.54
2018-08-24T10:59:01.926Z,45.39
2018-08-24T11:01:30.996Z,46.37
2018-08-24T11:04:00.119Z,46.43
2018-08-24T11:06:29.175Z,45.66
2018-08-24T11:08:58.305Z,43.46
2018-08-24T11:11:27.577Z,43.44
2018-08-24T11:13:56.686Z,42.58
2018-08-24T11:16:25.773Z,41.49
2018-08-24T11:18:54.894Z,41.89
2018-08-24T11:21:23.973Z,40.79
2018-08-24T11:23:53.141Z,41.51
2018-08-24T11:26:22.303Z,41.13
2018-08-24T11:28:51.401Z,41.92
2018-08-24T11:31:20.522Z,41.93
2018-08-24T11:33:49.644Z,42.43
2018-08-24T11:36:18.816Z,42.77
2018-08-24T11:38:47.881Z,42.47
2018-08-24T11:41:17.070Z,41.25
2018-08-24T11:43:46.391Z,42.26
2018-08-24T11:46:15.470Z,40.84
2018-08-24T11:48:44.544Z,40.93
2018-08-24T11:51:13.680Z,41.36
2018-08-24T11:53:42.731Z,41.20
2018-08-24T11:56:12.479Z,40.90
2018-08-24T11:58:41.633Z,41.67
2018-08-24T12:01:10.733Z,39.95
2018-08-24T12:03:39.798Z,40.24
2018-08-24T12:06:08.921Z,40.40
2018-08-24T12:08:37.993Z,38.99
2018-08-24T12:11:07.071Z,39.09
2018-08-24T12:13:36.156Z,38.12
2018-08-24T12:16:05.308Z,37.00
2018-08-24T12:18:34.450Z,36.43
2018-08-24T12:21:03.565Z,36.70
2018-08-24T12:23:32.685Z,37.08
2018-08-24T12:26:01.865Z,37.10
2018-08-24T12:28:30.997Z,36.56
2018-08-24T12:31:00.184Z,35.82
2018-08-24T12:33:29.248Z,35.41
2018-08-24T12:35:58.329Z,33.51
2018-08-24T12:38:27.447Z,34.38
2018-08-24T12:40:56.570Z,34.21
2018-08-24T12:43:25.732Z,34.71
2018-08-24T12:45:54.850Z,35.40
2018-08-24T12:48:24.069Z,37.03
2018-08-24T12:50:53.192Z,35.96
2018-08-24T12:53:22.307Z,35.23
2018-08-24T12:55:51.450Z,34.61
2018-08-24T12:58:20.616Z,33.31
2018-08-24T13:00:49.778Z,33.60
2018-08-24T13:03:18.903Z,34.84
2018-08-24T13:05:48.105Z,35.10
2018-08-24T13:08:17.187Z,34.58
2018-08-24T13:10:46.294Z,34.37
2018-08-24T13:13:15.372Z,34.81
2018-08-24T13:15:44.500Z,34.02
2018-08-24T13:18:13.630Z,32.13
2018-08-24T13:20:42.883Z,32.35
2018-08-24T13:23:12.083Z,33.31
2018-08-24T13:25:41.180Z,33.13
2018-08-24T13:28:10.371Z,32.84
2018-08-24T13:30:39.497Z,33.15
2018-08-24T13:33:08.801Z,33.29
2018-08-24T13:35:38.317Z,33.84
2018-08-24T13:38:07.811Z,33.68
2018-08-24T13:40:36.969Z,33.67
2018-08-24T13:43:06.600Z,32.91
2018-08-24T13:45:35.798Z,32.80
2018-08-24T13:48:05.432Z,32.52
2018-08-24T13:50:34.605Z,33.34
2018-08-24T13:53:03.678Z,33.59
2018-08-24T13:55:33.231Z,31.70
2018-08-24T13:58:02.630Z,32.54
2018-08-24T14:00:31.872Z,32.96
2018-08-24T14:03:00.965Z,32.64
2018-08-24T14:05:30.822Z,33.45
2018-08-24T14:07:59.992Z,33.81
2018-08-24T14:10:29.186Z,34.47
2018-08-24T14:12:58.307Z,34.18
2018-08-24T14:15:27.421Z,34.39
2018-08-24T14:17:56.513Z,34.13
2018-08-24T14:20:25.702Z,33.94
2018-08-24T14:22:54.768Z,34.48
2018-08-24T14:25:23.924Z,34.19
2018-08-24T14:27:53.045Z,35.25
2018-08-24T14:30:22.158Z,35.00
2018-08-24T14:32:51.254Z,34.85
2018-08-24T14:35:20.310Z,35.56
2018-08-24T14:37:49.454Z,35.13
2018-08-24T14:40:18.521Z,35.62
2018-08-24T14:42:47.631Z,36.33
2018-08-24T14:45:16.775Z,35.65
2018-08-24T14:47:45.856Z,36.20
2018-08-24T14:50:14.971Z,35.73
2018-08-24T14:52:44.098Z,34.75
2018-08-24T14:55:13.205Z,36.08
2018-08-24T14:57:42.395Z,36.51
2018-08-24T15:00:11.543Z,36.28
2018-08-24T15:02:40.700Z,35.80
2018-08-24T15:05:11.263Z,35.98
2018-08-24T15:07:40.391Z,36.11
2018-08-24T15:10:10.308Z,36.38
2018-08-24T15:12:39.783Z,36.38
2018-08-24T15:15:09.029Z,36.20
2018-08-24T15:17:38.105Z,36.29
2018-08-24T15:20:08.046Z,37.59
2018-08-24T15:22:37.194Z,39.01
2018-08-24T15:25:06.372Z,39.29
2018-08-24T15:27:35.545Z,39.47
2018-08-24T15:30:04.724Z,40.38
2018-08-24T15:32:33.775Z,40.94
2018-08-24T15:35:02.926Z,40.80
2018-08-24T15:37:32.033Z,40.95
2018-08-24T15:40:01.151Z,41.38
2018-08-24T15:42:30.277Z,41.35
2018-08-24T15:44:59.401Z,42.02
2018-08-24T15:47:28.511Z,43.03
2018-08-24T15:49:57.644Z,41.60
2018-08-24T15:52:26.796Z,42.16
2018-08-24T15:54:56.228Z,41.70
2018-08-24T15:57:25.319Z,41.55
2018-08-24T15:59:54.519Z,40.99
2018-08-24T16:02:23.637Z,41.28
2018-08-24T16:04:52.799Z,41.97
2018-08-24T16:07:21.926Z,41.88
2018-08-24T16:09:50.997Z,41.59
2018-08-24T16:12:20.204Z,40.65
2018-08-24T16:14:49.237Z,41.12
2018-08-24T16:17:18.344Z,40.95
2018-08-24T16:19:47.460Z,40.36
2018-08-24T16:22:16.575Z,40.72
2018-08-24T16:24:45.692Z,40.46
2018-08-24T16:27:22.470Z,40.80
2018-08-24T16:29:52.974Z,40.83
2018-08-24T16:32:22.103Z,41.17
2018-08-24T16:34:54.498Z,40.85
2018-08-24T16:37:23.606Z,41.65
2018-08-24T16:39:52.674Z,41.65
2018-08-24T16:42:21.761Z,41.81
2018-08-24T16:44:50.852Z,40.97
2018-08-24T16:47:20.055Z,40.82
2018-08-24T16:49:49.159Z,41.39
2018-08-24T16:52:18.325Z,42.33
2018-08-24T16:54:47.436Z,42.26
2018-08-24T16:57:16.511Z,41.91
2018-08-24T16:59:45.585Z,42.35
2018-08-24T17:02:14.707Z,42.61
2018-08-24T17:04:43.801Z,42.68
2018-08-24T17:07:12.926Z,42.60
2018-08-24T17:09:42.025Z,42.49
2018-08-24T17:12:11.283Z,43.35
2018-08-24T17:14:40.481Z,43.01
2018-08-24T17:17:09.577Z,42.60
2018-08-24T17:19:38.689Z,42.88
2018-08-24T17:22:07.773Z,42.91
2018-08-24T17:24:36.915Z,42.32
2018-08-24T17:27:06.194Z,42.54
2018-08-24T17:29:35.411Z,42.36
2018-08-24T17:32:04.506Z,42.34
2018-08-24T17:34:33.637Z,42.50
2018-08-24T17:37:02.852Z,42.73
2018-08-24T17:39:31.954Z,43.61
2018-08-24T17:42:01.334Z,43.54
2018-08-24T17:44:30.485Z,43.54
2018-08-24T17:50:10.152Z,44.07
2018-08-24T17:52:59.424Z,44.34
2018-08-24T17:55:28.592Z,44.23
2018-08-24T17:57:57.695Z,44.23
2018-08-24T18:00:26.813Z,45.44
2018-08-24T18:02:55.931Z,44.57
2018-08-24T18:05:25.039Z,44.91
2018-08-24T18:07:54.150Z,45.37
2018-08-24T18:10:23.289Z,45.45
2018-08-24T18:12:52.470Z,45.63
2018-08-24T18:15:21.609Z,45.58
2018-08-24T18:17:50.785Z,45.63
2018-08-24T18:20:19.932Z,45.91
2018-08-24T18:22:49.058Z,45.86
2018-08-24T18:25:18.176Z,46.44
2018-08-24T18:27:47.294Z,46.39
2018-08-24T18:30:16.470Z,46.76
2018-08-24T18:32:45.526Z,46.83
2018-08-24T18:35:14.627Z,46.87
2018-08-24T18:37:43.725Z,46.77
2018-08-24T18:40:12.941Z,47.04
2018-08-24T18:42:42.230Z,47.84
2018-08-24T18:45:11.276Z,47.58
2018-08-24T18:47:40.401Z,48.08
2018-08-24T18:50:09.546Z,47.79
2018-08-24T18:52:38.754Z,48.20
2018-08-24T18:55:08.189Z,48.28
2018-08-24T18:57:37.299Z,48.11
2018-08-24T19:00:06.499Z,48.37
2018-08-24T19:02:35.581Z,48.30
2018-08-24T19:05:04.842Z,48.93
2018-08-24T19:07:33.937Z,48.61
2018-08-24T19:10:03.048Z,48.57
2018-08-24T19:12:32.166Z,48.58
2018-08-24T19:15:01.365Z,48.51
2018-08-24T19:17:36.536Z,48.88
2018-08-24T19:20:10.783Z,48.77
2018-08-24T19:22:43.268Z,49.28
2018-08-24T19:25:12.371Z,49.76
2018-08-24T19:27:46.861Z,49.07
2018-08-24T19:30:21.211Z,49.32
2018-08-24T19:32:50.264Z,49.50
2018-08-24T19:35:19.363Z,48.52
2018-08-24T19:37:48.454Z,49.28
2018-08-24T19:40:22.862Z,49.45
2018-08-24T19:42:52.011Z,50.01
2018-08-24T19:45:21.098Z,50.02
2018-08-24T19:47:55.459Z,50.25
2018-08-24T19:50:24.554Z,49.84
2018-08-24T19:52:53.755Z,49.92
2018-08-24T19:55:22.925Z,49.12
2018-08-24T19:57:57.187Z,49.47
2018-08-24T20:00:26.257Z,49.13
2018-08-24T20:02:55.397Z,48.57
2018-08-24T20:05:24.511Z,49.14
2018-08-24T20:07:58.800Z,48.51
2018-08-24T20:10:27.984Z,49.33
2018-08-24T20:12:57.109Z,49.37
2018-08-24T20:15:31.458Z,50.15
2018-08-24T20:18:00.624Z,49.46
2018-08-24T20:20:29.710Z,49.77
2018-08-24T20:22:58.859Z,49.65
2018-08-24T20:25:27.928Z,50.19
2018-08-24T20:27:57.026Z,50.50
2018-08-24T20:30:26.226Z,50.21
2018-08-24T20:32:55.421Z,50.74
2018-08-24T20:35:24.551Z,50.77
2018-08-24T20:37:53.723Z,51.14
2018-08-24T20:40:22.865Z,50.96
2018-08-24T20:42:52.067Z,51.57
2018-08-24T20:45:21.291Z,51.08
2018-08-24T20:47:50.448Z,50.52
2018-08-24T20:50:19.522Z,50.77
2018-08-24T20:52:48.609Z,50.55
2018-08-24T20:55:17.741Z,50.51
2018-08-24T20:57:46.790Z,50.86
2018-08-24T21:00:15.917Z,50.61
2018-08-24T21:02:45.023Z,50.41
2018-08-24T21:05:14.149Z,51.04
2018-08-24T21:07:43.225Z,51.08
2018-08-24T21:10:12.286Z,50.38
2018-08-24T21:12:41.621Z,51.12
2018-08-24T21:15:10.660Z,50.79
2018-08-24T21:17:39.839Z,50.51
2018-08-24T21:20:08.900Z,51.36
2018-08-24T21:22:38.005Z,51.73
2018-08-24T21:25:07.661Z,51.78
2018-08-24T21:27:36.824Z,51.61
2018-08-24T21:30:06.361Z,51.08
2018-08-24T21:32:35.450Z,51.07
2018-08-24T21:35:04.668Z,51.29
2018-08-24T21:37:33.817Z,51.29
2018-08-24T21:40:02.905Z,51.44
2018-08-24T21:42:32.032Z,51.25
2018-08-24T21:45:01.195Z,51.65
2018-08-24T21:47:30.319Z,51.40
2018-08-24T21:49:59.374Z,51.29
2018-08-24T21:52:28.495Z,51.25
2018-08-24T21:54:57.546Z,51.22
2018-08-24T21:57:26.628Z,51.49
2018-08-24T21:59:55.736Z,51.19
2018-08-24T22:02:24.831Z,50.54
2018-08-24T22:04:53.949Z,49.93
2018-08-24T22:07:23.009Z,49.92
2018-08-24T22:09:52.375Z,52.18
2018-08-24T22:12:21.540Z,50.09
2018-08-24T22:14:50.736Z,50.23
2018-08-24T22:17:19.850Z,49.84
2018-08-24T22:19:48.906Z,49.97
2018-08-24T22:22:18.017Z,50.16
2018-08-24T22:24:47.098Z,50.22
2018-08-24T22:27:16.150Z,50.08
2018-08-24T22:29:45.535Z,50.41
2018-08-24T22:32:14.664Z,50.22
2018-08-24T22:34:43.748Z,50.56
2018-08-24T22:37:12.845Z,50.58
2018-08-24T22:39:41.927Z,50.68
2018-08-24T22:42:11.044Z,50.63
2018-08-24T22:44:40.132Z,50.40
2018-08-24T22:47:09.211Z,50.71
2018-08-24T22:49:41.359Z,50.51
2018-08-24T22:52:13.950Z,50.26
2018-08-24T22:54:46.565Z,50.62
2018-08-24T22:57:19.081Z,50.56
2018-08-24T22:59:51.176Z,50.15
2018-08-24T23:02:23.729Z,51.19
2018-08-24T23:04:56.752Z,50.46
2018-08-24T23:07:29.304Z,51.03
2018-08-24T23:10:01.415Z,50.91
2018-08-24T23:12:33.904Z,50.79
2018-08-24T23:15:06.024Z,52.18
2018-08-24T23:17:38.389Z,50.96
2018-08-24T23:20:10.888Z,51.17
2018-08-24T23:22:43.939Z,51.02
2018-08-24T23:25:16.027Z,51.18
2018-08-24T23:27:48.479Z,51.80
2018-08-24T23:30:21.055Z,51.81
2018-08-24T23:32:53.598Z,51.98
2018-08-24T23:35:25.637Z,51.88
2018-08-24T23:37:58.161Z,52.44
2018-08-24T23:40:30.671Z,52.04
2018-08-24T23:43:03.190Z,52.52
2018-08-24T23:45:35.734Z,53.07
2018-08-24T23:48:07.445Z,52.61
2018-08-24T23:50:39.874Z,53.20
2018-08-24T23:53:11.922Z,53.46
2018-08-24T23:55:44.473Z,53.21
2018-08-24T23:58:16.984Z,53.50
